PATL/TLJ METAR and TAF weather

Enter ICAO airport designator
Station Type Date Time Source
PATL METAR 2022/01/26 08:41 UTC NOAA

PATL 260841Z AUTO VRB02KT 10SM BKN029 BKN085 M13/M15 A3026 RMK AO2 SLP282


Station Type Date Time Source
PATL Decoded METAR 2022/01/26 08:41 UTC NOAA

Takotna, Tatalina LRRS Airport, AK, United States (PATL) 62-54N 155-59W
Jan 26, 2022 - 03:41 AM EST / 2022.01.26 0841 UTC
Wind: Variable at 2 MPH (2 KT):0
Visibility: 10 mile(s):0
Sky conditions: mostly cloudy
Temperature: 8 F (-13 C)
Dew Point: 5 F (-15 C)
Relative Humidity: 84%
Pressure (altimeter): 30.26 in. Hg (1024 hPa)
ob: PATL 260841Z AUTO VRB02KT 10SM BKN029 BKN085 M13/M15 A3026 RMK AO2 SLP282
cycle: 8

Station Type Date Time Source
PATL TAF 2012/01/12 14:06 UTC NOAA

TAF PATL 1214/1320 VRB06KT 9999 FEW050 SCT110 QNH2998INS TM26/1300Z TM32/1315Z

Example: see airport list